sensor_id;sensor_type;location;lat;lon;timestamp;P1;durP1;ratioP1;P2;durP2;ratioP2
38338;SDS011;37117;50.050;19.924;2024-02-14T00:04:37;28.10;;;16.80;;
38338;SDS011;37117;50.050;19.924;2024-02-14T00:19:01;35.30;;;21.50;;
38338;SDS011;37117;50.050;19.924;2024-02-14T00:33:08;32.40;;;18.50;;
38338;SDS011;37117;50.050;19.924;2024-02-14T00:47:37;32.20;;;17.70;;
38338;SDS011;37117;50.050;19.924;2024-02-14T00:50:09;34.50;;;20.40;;
38338;SDS011;37117;50.050;19.924;2024-02-14T01:03:07;38.40;;;21.30;;
38338;SDS011;37117;50.050;19.924;2024-02-14T01:17:17;36.90;;;22.20;;
38338;SDS011;37117;50.050;19.924;2024-02-14T01:19:48;35.00;;;21.70;;
38338;SDS011;37117;50.050;19.924;2024-02-14T01:32:04;40.00;;;22.40;;
38338;SDS011;37117;50.050;19.924;2024-02-14T01:46:04;44.10;;;26.20;;
38338;SDS011;37117;50.050;19.924;2024-02-14T02:00:31;39.00;;;23.60;;
38338;SDS011;37117;50.050;19.924;2024-02-14T02:05:34;43.80;;;25.20;;
38338;SDS011;37117;50.050;19.924;2024-02-14T02:15:27;38.00;;;23.40;;
38338;SDS011;37117;50.050;19.924;2024-02-14T02:29:35;39.40;;;25.70;;
38338;SDS011;37117;50.050;19.924;2024-02-14T02:43:36;43.60;;;26.60;;
38338;SDS011;37117;50.050;19.924;2024-02-14T02:57:42;43.30;;;25.80;;
38338;SDS011;37117;50.050;19.924;2024-02-14T03:12:03;43.80;;;25.20;;
38338;SDS011;37117;50.050;19.924;2024-02-14T03:26:38;53.30;;;30.20;;
38338;SDS011;37117;50.050;19.924;2024-02-14T03:29:08;51.20;;;29.90;;
38338;SDS011;37117;50.050;19.924;2024-02-14T03:41:19;57.40;;;34.00;;
38338;SDS011;37117;50.050;19.924;2024-02-14T03:55:28;52.70;;;32.30;;
38338;SDS011;37117;50.050;19.924;2024-02-14T03:58:00;51.80;;;30.90;;
38338;SDS011;37117;50.050;19.924;2024-02-14T04:10:06;57.40;;;36.00;;
38338;SDS011;37117;50.050;19.924;2024-02-14T04:24:11;55.70;;;32.70;;
38338;SDS011;37117;50.050;19.924;2024-02-14T04:38:30;55.70;;;34.10;;
38338;SDS011;37117;50.050;19.924;2024-02-14T04:52:38;57.70;;;34.00;;
38338;SDS011;37117;50.050;19.924;2024-02-14T04:55:09;65.40;;;38.10;;
38338;SDS011;37117;50.050;19.924;2024-02-14T05:08:07;56.90;;;35.20;;
38338;SDS011;37117;50.050;19.924;2024-02-14T05:22:11;52.20;;;29.60;;
38338;SDS011;37117;50.050;19.924;2024-02-14T05:24:42;51.20;;;28.90;;
38338;SDS011;37117;50.050;19.924;2024-02-14T05:36:51;56.70;;;33.20;;
38338;SDS011;37117;50.050;19.924;2024-02-14T05:51:01;63.90;;;35.90;;
38338;SDS011;37117;50.050;19.924;2024-02-14T06:04:57;57.00;;;34.40;;
38338;SDS011;37117;50.050;19.924;2024-02-14T06:19:07;52.50;;;30.40;;
38338;SDS011;37117;50.050;19.924;2024-02-14T06:33:15;59.50;;;35.00;;
38338;SDS011;37117;50.050;19.924;2024-02-14T06:47:12;56.60;;;34.40;;
38338;SDS011;37117;50.050;19.924;2024-02-14T07:01:24;55.40;;;34.40;;
38338;SDS011;37117;50.050;19.924;2024-02-14T07:15:31;66.10;;;34.50;;
38338;SDS011;37117;50.050;19.924;2024-02-14T07:18:02;57.30;;;34.70;;
38338;SDS011;37117;50.050;19.924;2024-02-14T07:20:33;57.00;;;33.80;;
38338;SDS011;37117;50.050;19.924;2024-02-14T07:30:00;54.40;;;34.80;;
38338;SDS011;37117;50.050;19.924;2024-02-14T07:44:00;58.60;;;34.30;;
38338;SDS011;37117;50.050;19.924;2024-02-14T07:58:08;56.10;;;34.00;;
38338;SDS011;37117;50.050;19.924;2024-02-14T08:12:11;52.40;;;28.60;;
38338;SDS011;37117;50.050;19.924;2024-02-14T08:26:17;42.50;;;25.30;;
38338;SDS011;37117;50.050;19.924;2024-02-14T08:28:47;39.60;;;24.10;;
38338;SDS011;37117;50.050;19.924;2024-02-14T08:31:19;44.40;;;25.50;;
38338;SDS011;37117;50.050;19.924;2024-02-14T08:41:16;32.70;;;17.80;;
38338;SDS011;37117;50.050;19.924;2024-02-14T08:55:20;30.90;;;16.40;;
38338;SDS011;37117;50.050;19.924;2024-02-14T09:09:39;27.80;;;16.50;;
38338;SDS011;37117;50.050;19.924;2024-02-14T09:12:09;30.00;;;17.80;;
38338;SDS011;37117;50.050;19.924;2024-02-14T09:14:40;25.90;;;16.20;;
38338;SDS011;37117;50.050;19.924;2024-02-14T09:24:06;31.80;;;16.30;;
38338;SDS011;37117;50.050;19.924;2024-02-14T09:38:13;11.30;;;6.30;;
38338;SDS011;37117;50.050;19.924;2024-02-14T09:40:43;12.30;;;5.10;;
38338;SDS011;37117;50.050;19.924;2024-02-14T09:43:16;8.20;;;4.30;;
38338;SDS011;37117;50.050;19.924;2024-02-14T09:52:48;9.30;;;3.30;;
38338;SDS011;37117;50.050;19.924;2024-02-14T10:06:56;10.80;;;5.40;;
38338;SDS011;37117;50.050;19.924;2024-02-14T10:21:01;6.70;;;3.40;;
38338;SDS011;37117;50.050;19.924;2024-02-14T10:35:02;9.50;;;4.00;;
38338;SDS011;37117;50.050;19.924;2024-02-14T10:49:10;10.50;;;3.60;;
38338;SDS011;37117;50.050;19.924;2024-02-14T10:51:42;8.40;;;3.50;;
38338;SDS011;37117;50.050;19.924;2024-02-14T11:08:18;9.70;;;3.10;;
38338;SDS011;37117;50.050;19.924;2024-02-14T11:22:22;5.00;;;1.90;;
38338;SDS011;37117;50.050;19.924;2024-02-14T11:36:24;5.40;;;2.40;;
38338;SDS011;37117;50.050;19.924;2024-02-14T11:38:55;5.00;;;2.30;;
38338;SDS011;37117;50.050;19.924;2024-02-14T11:51:02;6.70;;;2.30;;
38338;SDS011;37117;50.050;19.924;2024-02-14T11:53:37;6.20;;;2.50;;
38338;SDS011;37117;50.050;19.924;2024-02-14T11:56:10;8.60;;;2.90;;
38338;SDS011;37117;50.050;19.924;2024-02-14T12:05:39;5.60;;;2.40;;
38338;SDS011;37117;50.050;19.924;2024-02-14T12:20:07;8.00;;;2.40;;
38338;SDS011;37117;50.050;19.924;2024-02-14T12:34:14;5.40;;;3.00;;
38338;SDS011;37117;50.050;19.924;2024-02-14T12:48:23;8.00;;;3.20;;
38338;SDS011;37117;50.050;19.924;2024-02-14T13:03:00;7.60;;;3.20;;
38338;SDS011;37117;50.050;19.924;2024-02-14T13:05:31;7.20;;;3.00;;
38338;SDS011;37117;50.050;19.924;2024-02-14T13:18:32;6.30;;;3.40;;
38338;SDS011;37117;50.050;19.924;2024-02-14T13:32:45;7.60;;;3.00;;
38338;SDS011;37117;50.050;19.924;2024-02-14T13:46:52;6.80;;;2.80;;
38338;SDS011;37117;50.050;19.924;2024-02-14T14:01:10;8.00;;;3.10;;
38338;SDS011;37117;50.050;19.924;2024-02-14T14:15:14;8.90;;;3.70;;
38338;SDS011;37117;50.050;19.924;2024-02-14T14:29:22;6.70;;;3.70;;
38338;SDS011;37117;50.050;19.924;2024-02-14T14:43:59;6.10;;;3.50;;
38338;SDS011;37117;50.050;19.924;2024-02-14T14:46:30;6.80;;;3.40;;
38338;SDS011;37117;50.050;19.924;2024-02-14T14:58:44;8.40;;;3.20;;
38338;SDS011;37117;50.050;19.924;2024-02-14T15:16:25;9.00;;;3.60;;
38338;SDS011;37117;50.050;19.924;2024-02-14T15:30:34;7.90;;;3.50;;
38338;SDS011;37117;50.050;19.924;2024-02-14T15:33:18;6.10;;;3.20;;
38338;SDS011;37117;50.050;19.924;2024-02-14T15:44:25;7.00;;;3.20;;
38338;SDS011;37117;50.050;19.924;2024-02-14T15:58:33;8.30;;;3.60;;
38338;SDS011;37117;50.050;19.924;2024-02-14T16:01:04;6.20;;;3.30;;
38338;SDS011;37117;50.050;19.924;2024-02-14T16:14:05;8.60;;;3.60;;
38338;SDS011;37117;50.050;19.924;2024-02-14T16:27:59;10.40;;;4.50;;
38338;SDS011;37117;50.050;19.924;2024-02-14T16:42:08;12.20;;;4.90;;
38338;SDS011;37117;50.050;19.924;2024-02-14T16:56:46;15.90;;;5.80;;
38338;SDS011;37117;50.050;19.924;2024-02-14T16:59:16;18.10;;;4.90;;
38338;SDS011;37117;50.050;19.924;2024-02-14T17:11:22;19.40;;;5.80;;
38338;SDS011;37117;50.050;19.924;2024-02-14T17:25:25;9.40;;;4.90;;
38338;SDS011;37117;50.050;19.924;2024-02-14T17:39:25;18.90;;;6.30;;
38338;SDS011;37117;50.050;19.924;2024-02-14T17:53:31;27.30;;;8.20;;
38338;SDS011;37117;50.050;19.924;2024-02-14T17:56:01;19.70;;;8.10;;
38338;SDS011;37117;50.050;19.924;2024-02-14T18:09:09;20.60;;;8.00;;
38338;SDS011;37117;50.050;19.924;2024-02-14T18:23:13;14.20;;;7.50;;
38338;SDS011;37117;50.050;19.924;2024-02-14T18:37:19;19.20;;;7.60;;
38338;SDS011;37117;50.050;19.924;2024-02-14T18:39:50;21.00;;;9.00;;
38338;SDS011;37117;50.050;19.924;2024-02-14T18:52:04;15.50;;;7.90;;
38338;SDS011;37117;50.050;19.924;2024-02-14T19:06:04;22.00;;;9.80;;
38338;SDS011;37117;50.050;19.924;2024-02-14T19:20:13;19.20;;;7.90;;
38338;SDS011;37117;50.050;19.924;2024-02-14T19:34:21;22.90;;;6.30;;
38338;SDS011;37117;50.050;19.924;2024-02-14T19:48:30;33.00;;;10.70;;
38338;SDS011;37117;50.050;19.924;2024-02-14T20:02:42;18.50;;;8.30;;
38338;SDS011;37117;50.050;19.924;2024-02-14T20:05:13;24.30;;;9.90;;
38338;SDS011;37117;50.050;19.924;2024-02-14T20:07:48;22.80;;;9.60;;
38338;SDS011;37117;50.050;19.924;2024-02-14T20:10:20;30.60;;;12.40;;
38338;SDS011;37117;50.050;19.924;2024-02-14T20:12:51;26.50;;;12.10;;
38338;SDS011;37117;50.050;19.924;2024-02-14T20:15:21;23.00;;;12.30;;
38338;SDS011;37117;50.050;19.924;2024-02-14T20:28:16;22.30;;;11.20;;
38338;SDS011;37117;50.050;19.924;2024-02-14T20:30:47;27.00;;;10.50;;
38338;SDS011;37117;50.050;19.924;2024-02-14T20:47:21;15.80;;;7.80;;
38338;SDS011;37117;50.050;19.924;2024-02-14T21:01:27;17.90;;;7.60;;
38338;SDS011;37117;50.050;19.924;2024-02-14T21:16:05;16.70;;;7.80;;
38338;SDS011;37117;50.050;19.924;2024-02-14T21:18:36;16.30;;;6.90;;
38338;SDS011;37117;50.050;19.924;2024-02-14T21:31:35;23.10;;;12.00;;
38338;SDS011;37117;50.050;19.924;2024-02-14T21:45:44;29.60;;;11.20;;
38338;SDS011;37117;50.050;19.924;2024-02-14T21:59:54;21.20;;;9.90;;
38338;SDS011;37117;50.050;19.924;2024-02-14T22:14:27;21.30;;;9.50;;
38338;SDS011;37117;50.050;19.924;2024-02-14T22:28:34;18.30;;;9.00;;
38338;SDS011;37117;50.050;19.924;2024-02-14T22:42:41;23.60;;;8.80;;
38338;SDS011;37117;50.050;19.924;2024-02-14T22:45:13;17.10;;;9.00;;
38338;SDS011;37117;50.050;19.924;2024-02-14T22:47:45;25.30;;;12.10;;
38338;SDS011;37117;50.050;19.924;2024-02-14T22:50:15;32.70;;;12.10;;
38338;SDS011;37117;50.050;19.924;2024-02-14T22:52:46;21.50;;;11.80;;
38338;SDS011;37117;50.050;19.924;2024-02-14T22:55:17;29.70;;;11.50;;
38338;SDS011;37117;50.050;19.924;2024-02-14T23:08:10;23.80;;;11.40;;
38338;SDS011;37117;50.050;19.924;2024-02-14T23:10:41;22.40;;;11.10;;
38338;SDS011;37117;50.050;19.924;2024-02-14T23:13:13;27.00;;;13.90;;
38338;SDS011;37117;50.050;19.924;2024-02-14T23:15:45;29.90;;;14.60;;
38338;SDS011;37117;50.050;19.924;2024-02-14T23:22:50;28.70;;;15.50;;
38338;SDS011;37117;50.050;19.924;2024-02-14T23:37:37;24.10;;;12.90;;
38338;SDS011;37117;50.050;19.924;2024-02-14T23:40:09;25.80;;;14.00;;
38338;SDS011;37117;50.050;19.924;2024-02-14T23:53:07;33.00;;;15.70;;
